Time;durP1;ratioP1;P1;durP2;ratioP2;P2;SDS_P1;SDS_P2;PMS_P1;PMS_P2;Temp;Humidity;BMP_temperature;BMP_pressure;BME280_temperature;BME280_humidity;BME280_pressure;Samples;Min_cycle;Max_cycle;Signal;HPM_P1;HPM_P2
2024/03/19 00:01:39;;;;;;;130.82;10.13;;;13.10;94.20;;;;;;5062699;28;20036;-73
2024/03/19 00:04:08;;;;;;;149.38;11.90;;;13.10;94.30;;;;;;5062115;28;20490;-73
2024/03/19 00:06:34;;;;;;;158.68;12.88;;;13.10;94.30;;;;;;5060678;28;20041;-73
2024/03/19 00:09:01;;;;;;;105.25;10.20;;;13.10;94.40;;;;;;5052918;28;20039;-73
2024/03/19 00:11:26;;;;;;;115.72;11.25;;;13.10;94.40;;;;;;5054264;28;20064;-73
2024/03/19 00:13:52;;;;;;;179.93;12.13;;;13.10;94.30;;;;;;5060417;28;20057;-73
2024/03/19 00:16:18;;;;;;;155.23;11.15;;;13.10;94.30;;;;;;5064260;28;20033;-72
2024/03/19 00:18:43;;;;;;;130.10;11.00;;;13.10;94.20;;;;;;5054511;28;20034;-73
2024/03/19 00:21:12;;;;;;;110.10;10.38;;;13.10;94.30;;;;;;5058569;28;20052;-73
2024/03/19 00:23:38;;;;;;;132.93;10.32;;;13.10;94.40;;;;;;5057365;28;20468;-73
2024/03/19 00:26:07;;;;;;;114.68;9.90;;;13.00;94.40;;;;;;5051532;28;20029;-73
2024/03/19 00:28:33;;;;;;;118.68;10.07;;;13.00;94.40;;;;;;5065758;28;20079;-73
2024/03/19 00:30:59;;;;;;;79.28;9.50;;;13.00;94.40;;;;;;5063866;28;20115;-73
2024/03/19 00:33:26;;;;;;;119.68;9.80;;;12.90;94.40;;;;;;5052146;28;20041;-73
2024/03/19 00:35:52;;;;;;;40.20;9.02;;;12.90;94.40;;;;;;5050449;28;20072;-73
2024/03/19 00:38:19;;;;;;;62.75;10.20;;;12.90;94.40;;;;;;5058139;28;20047;-73
2024/03/19 00:40:45;;;;;;;38.83;10.52;;;12.90;94.40;;;;;;5054650;28;20094;-73
2024/03/19 00:43:11;;;;;;;45.65;9.73;;;12.90;94.30;;;;;;5056457;28;20031;-73
2024/03/19 00:45:36;;;;;;;36.03;9.55;;;12.90;94.30;;;;;;5048724;28;20477;-72
2024/03/19 00:48:03;;;;;;;23.20;10.43;;;12.90;94.30;;;;;;5050132;28;20526;-73
2024/03/19 00:50:28;;;;;;;27.60;10.45;;;12.90;94.30;;;;;;5062872;28;20085;-73
2024/03/19 00:52:54;;;;;;;34.25;9.80;;;12.80;94.60;;;;;;5049360;28;20033;-73
2024/03/19 00:55:20;;;;;;;21.92;9.60;;;12.80;94.30;;;;;;5054512;28;20036;-73
2024/03/19 00:57:47;;;;;;;39.22;9.15;;;12.80;94.30;;;;;;5051726;28;20064;-73
2024/03/19 01:00:14;;;;;;;42.92;9.20;;;12.80;94.30;;;;;;5058392;28;20595;-73
2024/03/19 01:02:43;;;;;;;30.30;9.70;;;12.80;94.30;;;;;;5064278;28;20480;-73
2024/03/19 01:05:13;;;;;;;18.52;9.07;;;12.80;94.30;;;;;;5060984;28;20037;-73
2024/03/19 01:07:43;;;;;;;26.48;9.70;;;12.70;94.60;;;;;;5068530;28;20032;-73
2024/03/19 01:10:11;;;;;;;20.02;9.52;;;12.70;94.30;;;;;;5068259;28;20040;-72
2024/03/19 01:12:38;;;;;;;26.33;9.00;;;12.70;94.40;;;;;;5049701;28;20037;-73
2024/03/19 01:15:05;;;;;;;21.90;8.93;;;12.70;94.50;;;;;;5060651;28;20029;-72
2024/03/19 01:17:32;;;;;;;27.42;8.77;;;12.70;94.50;;;;;;5061717;28;20041;-72
2024/03/19 01:19:58;;;;;;;53.67;9.75;;;12.70;94.60;;;;;;5048211;28;20029;-72
2024/03/19 01:22:23;;;;;;;94.00;10.15;;;12.60;94.60;;;;;;5044453;28;20045;-72
2024/03/19 01:24:49;;;;;;;113.32;10.95;;;12.60;94.70;;;;;;5048010;28;20507;-72
2024/03/19 01:27:15;;;;;;;83.25;9.73;;;12.60;94.70;;;;;;5048730;28;20032;-73
2024/03/19 01:29:41;;;;;;;39.38;9.73;;;12.60;94.70;;;;;;5051708;28;20037;-72
2024/03/19 01:32:06;;;;;;;31.65;9.32;;;12.60;94.80;;;;;;5050112;28;20048;-73
2024/03/19 01:34:32;;;;;;;26.20;9.45;;;12.50;94.80;;;;;;5049869;28;20040;-73
2024/03/19 01:36:58;;;;;;;18.77;9.27;;;12.50;94.90;;;;;;5048955;28;20028;-72
2024/03/19 01:39:24;;;;;;;16.40;9.40;;;12.50;94.90;;;;;;5049177;28;20041;-72
2024/03/19 01:41:53;;;;;;;16.17;10.20;;;12.50;94.90;;;;;;5067248;28;20047;-72
2024/03/19 01:44:20;;;;;;;15.18;10.02;;;12.50;95.00;;;;;;5065357;28;20043;-73
2024/03/19 01:46:47;;;;;;;17.70;10.93;;;12.40;95.10;;;;;;5060404;28;20563;-73
2024/03/19 01:49:14;;;;;;;17.95;10.57;;;12.40;95.10;;;;;;5058742;28;20036;-72
2024/03/19 01:51:41;;;;;;;15.27;9.88;;;12.40;95.20;;;;;;5049772;28;20029;-72
2024/03/19 01:54:09;;;;;;;17.23;10.35;;;12.40;95.20;;;;;;5057769;28;20539;-73
2024/03/19 01:56:34;;;;;;;20.38;11.48;;;12.40;95.30;;;;;;5050907;28;20086;-73
2024/03/19 01:59:00;;;;;;;16.42;10.60;;;12.40;95.50;;;;;;5054912;28;20035;-73
2024/03/19 02:01:26;;;;;;;18.27;10.43;;;12.30;95.30;;;;;;5055941;28;20029;-73
2024/03/19 02:03:52;;;;;;;17.45;10.23;;;12.30;95.40;;;;;;5048301;28;20107;-73
2024/03/19 02:06:19;;;;;;;22.13;11.13;;;12.30;95.40;;;;;;5052733;28;20501;-73
2024/03/19 02:08:57;;;;;;;19.70;10.23;;;12.30;95.40;;;;;;5063523;28;20042;-73
2024/03/19 02:11:23;;;;;;;16.85;10.32;;;12.30;95.40;;;;;;5054760;28;20036;-73
2024/03/19 02:13:49;;;;;;;23.92;10.60;;;12.30;95.40;;;;;;5055326;28;20039;-72
2024/03/19 02:16:15;;;;;;;17.20;10.98;;;12.30;95.40;;;;;;5059570;28;20624;-73
2024/03/19 02:18:41;;;;;;;19.33;11.48;;;12.30;95.40;;;;;;5049926;28;20033;-73
2024/03/19 02:21:06;;;;;;;17.80;10.48;;;12.30;95.40;;;;;;5056993;28;20458;-73
2024/03/19 02:23:32;;;;;;;17.45;10.23;;;12.30;95.40;;;;;;5060002;28;20029;-73
2024/03/19 02:25:58;;;;;;;16.45;10.13;;;12.30;95.40;;;;;;5058183;28;20116;-73
2024/03/19 02:28:23;;;;;;;17.90;9.68;;;12.30;95.40;;;;;;5068636;28;20028;-73
2024/03/19 02:30:49;;;;;;;18.35;9.45;;;12.30;95.40;;;;;;5053406;28;20033;-72
2024/03/19 02:33:14;;;;;;;20.25;10.30;;;12.30;95.40;;;;;;5050970;28;20059;-72
2024/03/19 02:35:40;;;;;;;19.30;10.35;;;12.30;95.30;;;;;;5059175;28;20052;-72
2024/03/19 02:38:06;;;;;;;17.02;10.05;;;12.30;95.30;;;;;;5042599;28;20538;-73
2024/03/19 02:40:31;;;;;;;20.00;10.20;;;12.30;95.30;;;;;;5048677;28;20025;-73
2024/03/19 02:42:57;;;;;;;18.48;10.60;;;12.40;95.30;;;;;;5047761;28;20080;-72
2024/03/19 02:45:23;;;;;;;21.60;9.98;;;12.40;95.20;;;;;;5050556;28;20033;-73
2024/03/19 02:47:49;;;;;;;17.17;10.38;;;12.40;95.20;;;;;;5058827;28;20033;-73
2024/03/19 02:50:15;;;;;;;20.45;10.25;;;12.40;95.10;;;;;;5061939;28;20095;-73
2024/03/19 02:52:40;;;;;;;16.90;10.68;;;12.40;95.10;;;;;;5067905;28;20060;-72
2024/03/19 02:55:06;;;;;;;17.85;10.27;;;12.40;95.10;;;;;;5062347;28;21767;-72
2024/03/19 02:57:32;;;;;;;18.42;10.25;;;12.40;95.10;;;;;;5057145;28;20056;-72
2024/03/19 02:59:58;;;;;;;15.88;10.68;;;12.40;95.10;;;;;;5050233;28;20025;-73
2024/03/19 03:02:23;;;;;;;20.85;11.00;;;12.40;95.10;;;;;;5054550;28;20107;-72
2024/03/19 03:04:49;;;;;;;19.60;10.80;;;12.40;95.10;;;;;;5057803;28;20025;-73
2024/03/19 03:07:15;;;;;;;20.55;11.75;;;12.40;95.00;;;;;;5052409;28;20462;-73
2024/03/19 03:09:40;;;;;;;15.40;9.80;;;12.50;95.00;;;;;;5055617;28;20024;-73
2024/03/19 03:12:06;;;;;;;20.15;10.88;;;12.40;94.90;;;;;;5055951;28;20206;-72
2024/03/19 03:14:32;;;;;;;16.30;11.07;;;12.40;94.90;;;;;;5049785;28;20029;-72
2024/03/19 03:16:58;;;;;;;19.35;10.57;;;12.40;94.90;;;;;;5054631;28;20395;-73
2024/03/19 03:19:23;;;;;;;21.73;10.55;;;12.40;95.20;;;;;;5060696;28;20060;-72
2024/03/19 03:21:49;;;;;;;17.48;9.93;;;12.50;95.00;;;;;;5051695;28;20076;-72
2024/03/19 03:24:15;;;;;;;22.75;9.65;;;12.40;94.90;;;;;;5050498;28;20464;-73
2024/03/19 03:26:41;;;;;;;19.90;10.23;;;12.40;94.90;;;;;;5055669;28;20033;-73
2024/03/19 03:29:07;;;;;;;19.13;9.43;;;12.50;94.90;;;;;;5049507;28;20059;-73
2024/03/19 03:31:33;;;;;;;23.88;10.63;;;12.60;94.80;;;;;;5063857;28;20375;-73
2024/03/19 03:33:59;;;;;;;23.15;10.30;;;12.60;94.70;;;;;;5056644;28;20484;-73
2024/03/19 03:36:24;;;;;;;15.23;8.93;;;12.50;94.90;;;;;;5055198;28;20033;-74
2024/03/19 03:38:50;;;;;;;19.33;9.15;;;12.40;94.90;;;;;;5058340;28;20025;-74
2024/03/19 03:41:15;;;;;;;23.38;9.98;;;12.40;94.90;;;;;;5049067;28;20375;-72
2024/03/19 03:43:41;;;;;;;16.40;8.95;;;12.50;94.80;;;;;;5059213;28;20364;-72
2024/03/19 03:46:06;;;;;;;16.45;9.10;;;12.50;94.80;;;;;;5051827;28;20115;-73
2024/03/19 03:48:32;;;;;;;16.23;8.82;;;12.60;94.80;;;;;;5062141;28;20037;-72
2024/03/19 03:50:58;;;;;;;21.48;8.77;;;12.60;94.70;;;;;;5057589;28;20483;-73
2024/03/19 03:53:23;;;;;;;13.48;6.88;;;12.60;94.70;;;;;;5056090;28;20043;-73
2024/03/19 03:55:49;;;;;;;14.70;7.72;;;12.70;94.60;;;;;;5050955;28;20037;-73
2024/03/19 03:58:15;;;;;;;18.20;8.52;;;12.70;94.50;;;;;;5063285;28;20037;-73
2024/03/19 04:00:44;;;;;;;16.08;7.85;;;12.70;94.50;;;;;;5063097;28;20467;-73
2024/03/19 04:03:10;;;;;;;16.92;8.02;;;12.70;94.50;;;;;;5066431;28;20087;-73
2024/03/19 04:05:35;;;;;;;14.95;7.57;;;12.70;94.50;;;;;;5058777;28;20064;-73
2024/03/19 04:08:01;;;;;;;15.93;8.30;;;12.70;94.40;;;;;;5053795;28;20032;-73
2024/03/19 04:10:27;;;;;;;17.48;6.53;;;12.80;94.40;;;;;;5068340;28;20024;-73
2024/03/19 04:12:52;;;;;;;19.70;8.35;;;12.80;94.30;;;;;;5070512;28;20429;-73
2024/03/19 04:15:18;;;;;;;11.50;6.72;;;12.80;94.30;;;;;;5061765;28;20028;-73
2024/03/19 04:17:44;;;;;;;14.18;7.53;;;12.80;94.30;;;;;;5051999;28;20021;-72
2024/03/19 04:20:11;;;;;;;16.00;7.22;;;12.80;94.30;;;;;;5064841;28;20059;-73
2024/03/19 04:22:38;;;;;;;15.40;7.65;;;12.80;94.30;;;;;;5053850;28;20055;-73
2024/03/19 04:25:05;;;;;;;14.80;6.88;;;12.80;94.30;;;;;;5062262;28;20029;-72
2024/03/19 04:27:30;;;;;;;16.58;7.93;;;12.80;94.30;;;;;;5051998;28;20047;-73
2024/03/19 04:29:56;;;;;;;19.10;8.50;;;12.80;94.30;;;;;;5059447;28;20032;-72
2024/03/19 04:32:22;;;;;;;16.45;6.47;;;12.80;94.40;;;;;;5054381;28;20395;-73
2024/03/19 04:34:47;;;;;;;13.80;7.53;;;12.80;94.40;;;;;;5059160;28;20024;-73
2024/03/19 04:37:13;;;;;;;15.50;8.07;;;12.80;94.30;;;;;;5056964;28;20035;-73
2024/03/19 04:39:39;;;;;;;17.77;7.78;;;12.80;94.30;;;;;;5059149;28;20036;-73
2024/03/19 04:42:05;;;;;;;18.83;7.50;;;12.80;94.40;;;;;;5054129;28;20036;-72
2024/03/19 04:44:31;;;;;;;15.88;7.82;;;12.80;94.40;;;;;;5063219;28;20770;-72
2024/03/19 04:46:58;;;;;;;21.23;7.85;;;12.80;94.30;;;;;;5061157;28;20055;-73
2024/03/19 04:49:24;;;;;;;19.45;7.90;;;12.80;94.30;;;;;;5051286;28;20025;-73
2024/03/19 04:51:49;;;;;;;15.65;7.20;;;12.90;94.30;;;;;;5060257;28;20043;-73
2024/03/19 04:54:15;;;;;;;17.90;6.97;;;12.90;94.20;;;;;;5055354;28;20043;-73
2024/03/19 04:56:41;;;;;;;15.93;7.47;;;12.90;94.10;;;;;;5056192;28;20060;-73
2024/03/19 04:59:07;;;;;;;14.82;6.93;;;12.90;94.00;;;;;;5053867;28;20039;-73
2024/03/19 05:01:32;;;;;;;13.75;7.00;;;13.00;94.00;;;;;;5049986;28;20044;-73
2024/03/19 05:03:58;;;;;;;13.88;7.22;;;13.00;94.00;;;;;;5061782;28;20032;-73
2024/03/19 05:06:24;;;;;;;15.98;7.18;;;13.00;94.00;;;;;;5056795;28;20033;-72
2024/03/19 05:08:49;;;;;;;18.50;6.35;;;13.00;93.90;;;;;;5062331;28;20044;-72
2024/03/19 05:11:15;;;;;;;17.75;7.10;;;13.00;94.00;;;;;;5056906;28;20529;-72
2024/03/19 05:13:41;;;;;;;20.00;7.50;;;13.10;94.00;;;;;;5048841;28;20033;-72
2024/03/19 05:16:07;;;;;;;16.35;8.05;;;13.10;93.90;;;;;;5057662;28;20120;-72
2024/03/19 05:18:33;;;;;;;17.05;7.95;;;13.10;93.90;;;;;;5054519;28;20025;-73
2024/03/19 05:20:58;;;;;;;17.80;7.95;;;13.10;93.90;;;;;;5053355;28;20039;-72
2024/03/19 05:23:24;;;;;;;15.70;6.38;;;13.10;93.90;;;;;;5057355;28;20048;-72
2024/03/19 05:25:50;;;;;;;16.63;6.93;;;13.10;93.90;;;;;;5060788;28;20032;-73
2024/03/19 05:28:16;;;;;;;17.77;7.13;;;13.10;94.00;;;;;;5049322;28;20052;-72
2024/03/19 05:30:42;;;;;;;15.05;7.25;;;13.10;94.00;;;;;;5061312;28;20063;-71
2024/03/19 05:33:07;;;;;;;19.33;7.18;;;13.10;93.90;;;;;;5049261;28;20044;-72
2024/03/19 05:35:33;;;;;;;17.60;7.10;;;13.10;93.90;;;;;;5056494;28;20036;-73
2024/03/19 05:37:58;;;;;;;20.75;7.45;;;13.10;94.00;;;;;;5069799;28;20033;-73
2024/03/19 05:40:24;;;;;;;17.83;6.78;;;13.10;94.00;;;;;;5050272;28;20548;-74
2024/03/19 05:42:50;;;;;;;12.88;6.55;;;13.10;94.00;;;;;;5057840;28;20036;-74
2024/03/19 05:45:16;;;;;;;17.42;7.10;;;13.10;94.10;;;;;;5060008;28;20025;-74
2024/03/19 05:47:43;;;;;;;16.92;7.50;;;13.20;94.00;;;;;;5051030;28;20040;-74
2024/03/19 05:50:09;;;;;;;18.33;8.25;;;13.20;94.00;;;;;;5047314;28;20040;-74
2024/03/19 05:52:35;;;;;;;16.20;7.68;;;13.10;94.00;;;;;;5054581;28;20037;-74
2024/03/19 05:55:01;;;;;;;14.60;7.80;;;13.10;94.00;;;;;;5061439;28;20435;-74
2024/03/19 05:57:26;;;;;;;18.13;7.97;;;13.10;94.00;;;;;;5059566;28;20041;-74
2024/03/19 05:59:52;;;;;;;17.88;7.75;;;13.10;94.10;;;;;;5045926;28;20032;-74
2024/03/19 06:02:18;;;;;;;21.42;7.68;;;13.10;94.10;;;;;;5066743;28;20044;-74
2024/03/19 06:04:43;;;;;;;19.35;8.07;;;13.20;94.40;;;;;;5057482;28;20036;-74
2024/03/19 06:07:09;;;;;;;21.02;7.13;;;13.20;94.00;;;;;;5061500;28;20071;-74
2024/03/19 06:09:40;;;;;;;18.65;8.10;;;13.20;93.90;;;;;;5058325;28;20035;-74
2024/03/19 06:12:06;;;;;;;22.77;9.35;;;13.20;93.90;;;;;;5052541;28;20444;-74
2024/03/19 06:14:32;;;;;;;17.05;7.32;;;13.20;93.90;;;;;;5053061;28;20056;-73
2024/03/19 06:16:57;;;;;;;15.75;7.82;;;13.20;94.00;;;;;;5063771;28;20036;-74
2024/03/19 06:19:23;;;;;;;20.90;7.90;;;13.20;94.00;;;;;;5064844;28;20053;-74
2024/03/19 06:21:49;;;;;;;23.88;8.60;;;13.20;94.00;;;;;;5047396;28;20736;-74
2024/03/19 06:24:14;;;;;;;18.70;8.40;;;13.20;94.00;;;;;;5060504;28;20502;-74
2024/03/19 06:26:40;;;;;;;21.02;8.60;;;13.00;94.10;;;;;;5066015;28;20032;-73
2024/03/19 06:29:06;;;;;;;23.35;8.82;;;13.00;94.30;;;;;;5053423;28;20124;-74
2024/03/19 06:31:31;;;;;;;18.98;7.28;;;12.90;94.40;;;;;;5059926;28;20119;-74
2024/03/19 06:33:57;;;;;;;23.80;9.60;;;12.80;94.60;;;;;;5059013;28;20104;-74
2024/03/19 06:36:23;;;;;;;14.98;6.80;;;12.80;94.80;;;;;;5067258;28;20399;-74
2024/03/19 06:38:48;;;;;;;19.38;9.43;;;12.70;94.80;;;;;;5048205;28;20037;-74
2024/03/19 06:41:14;;;;;;;25.48;9.43;;;12.70;94.80;;;;;;5059733;28;20456;-74
2024/03/19 06:43:40;;;;;;;17.48;7.68;;;12.80;94.80;;;;;;5048706;28;20033;-74
2024/03/19 06:46:06;;;;;;;19.65;7.65;;;12.80;94.80;;;;;;5058902;28;20476;-74
2024/03/19 06:48:32;;;;;;;19.70;7.88;;;12.80;94.70;;;;;;5048769;28;20090;-74
2024/03/19 06:50:59;;;;;;;20.88;6.68;;;12.80;94.60;;;;;;5047919;28;20079;-74
2024/03/19 06:53:24;;;;;;;16.92;8.00;;;12.90;94.60;;;;;;5047567;28;20098;-74
2024/03/19 06:55:50;;;;;;;23.38;7.72;;;12.90;94.50;;;;;;5060933;28;20453;-73
2024/03/19 06:58:15;;;;;;;18.98;8.02;;;12.90;94.40;;;;;;5054220;28;20103;-73
2024/03/19 07:00:41;;;;;;;24.92;8.13;;;13.00;94.40;;;;;;5054887;28;20403;-73
2024/03/19 07:03:07;;;;;;;25.23;8.25;;;13.00;94.40;;;;;;5060516;28;20069;-73
2024/03/19 07:05:33;;;;;;;17.63;6.97;;;13.00;94.40;;;;;;5059841;28;20100;-73
2024/03/19 07:07:59;;;;;;;15.13;6.85;;;13.10;94.40;;;;;;5048765;28;20079;-73
2024/03/19 07:10:27;;;;;;;16.38;7.72;;;13.10;94.40;;;;;;5050741;28;20041;-73
2024/03/19 07:12:53;;;;;;;17.40;7.03;;;13.10;94.30;;;;;;5050523;28;20041;-74
2024/03/19 07:15:18;;;;;;;18.55;8.07;;;13.10;94.30;;;;;;5049559;28;20040;-74
2024/03/19 07:17:49;;;;;;;16.20;7.75;;;13.10;94.30;;;;;;5058436;28;20115;-74
2024/03/19 07:20:18;;;;;;;16.25;7.70;;;13.10;94.30;;;;;;5063358;28;20090;-73
2024/03/19 07:22:44;;;;;;;23.95;8.90;;;13.20;94.30;;;;;;5059368;28;20102;-73
2024/03/19 07:25:10;;;;;;;18.48;7.88;;;13.10;94.40;;;;;;5059165;28;20025;-73
2024/03/19 07:27:40;;;;;;;18.88;8.52;;;13.20;94.40;;;;;;5068741;28;20032;-74
2024/03/19 07:30:08;;;;;;;17.23;6.90;;;13.20;94.50;;;;;;5069788;28;20133;-73
2024/03/19 07:32:34;;;;;;;14.38;5.63;;;13.20;94.50;;;;;;5052958;28;20029;-73
2024/03/19 07:35:00;;;;;;;19.00;7.22;;;13.20;94.50;;;;;;5050797;28;20033;-73
2024/03/19 07:37:26;;;;;;;20.27;8.20;;;13.20;94.50;;;;;;5055931;28;20624;-73
2024/03/19 07:39:56;;;;;;;16.77;8.55;;;13.20;94.60;;;;;;5067121;28;20051;-73
2024/03/19 07:42:22;;;;;;;20.48;8.20;;;13.20;94.60;;;;;;5053396;28;20472;-73
2024/03/19 07:44:48;;;;;;;14.77;7.50;;;13.30;94.60;;;;;;5051695;28;20507;-73
2024/03/19 07:47:14;;;;;;;26.58;8.35;;;13.30;94.50;;;;;;5050622;28;20064;-73
2024/03/19 07:49:40;;;;;;;18.08;7.43;;;13.40;94.60;;;;;;5052360;28;20048;-73
2024/03/19 07:52:05;;;;;;;19.63;8.52;;;13.40;94.60;;;;;;5062769;28;20403;-73
2024/03/19 07:54:31;;;;;;;21.80;8.35;;;13.30;94.60;;;;;;5052489;28;20041;-73
2024/03/19 07:56:57;;;;;;;16.25;7.82;;;13.30;94.70;;;;;;5062393;28;20107;-73
2024/03/19 07:59:22;;;;;;;14.90;6.38;;;13.30;94.80;;;;;;5051185;28;20025;-73
2024/03/19 08:01:49;;;;;;;17.23;7.63;;;13.30;94.80;;;;;;5064798;28;20044;-73
2024/03/19 08:04:15;;;;;;;19.13;7.82;;;13.30;94.90;;;;;;5071422;28;20030;-73
2024/03/19 08:06:41;;;;;;;17.30;7.07;;;13.30;95.00;;;;;;5053016;28;20490;-73
2024/03/19 08:09:08;;;;;;;17.50;7.25;;;13.30;95.10;;;;;;5061863;28;20028;-73
2024/03/19 08:11:34;;;;;;;19.55;7.35;;;13.30;95.20;;;;;;5057878;28;20044;-73
2024/03/19 08:14:00;;;;;;;16.25;6.93;;;13.30;95.30;;;;;;5064564;28;20454;-73
2024/03/19 08:16:26;;;;;;;15.85;6.95;;;13.20;95.40;;;;;;5060816;28;20074;-73
2024/03/19 08:18:53;;;;;;;17.38;6.68;;;13.20;95.60;;;;;;5060616;28;20020;-73
2024/03/19 08:21:21;;;;;;;16.25;6.75;;;13.20;95.60;;;;;;5052632;28;20032;-73
2024/03/19 08:23:48;;;;;;;17.48;7.10;;;13.20;95.70;;;;;;5054788;28;20029;-73
2024/03/19 08:26:16;;;;;;;18.90;8.20;;;13.30;95.70;;;;;;5066032;28;20032;-73
2024/03/19 08:28:46;;;;;;;23.40;7.88;;;13.30;95.70;;;;;;5056903;28;20047;-73
2024/03/19 08:31:12;;;;;;;12.98;5.40;;;13.30;95.70;;;;;;5063255;28;20032;-74
2024/03/19 08:33:38;;;;;;;12.57;5.45;;;13.40;95.80;;;;;;5063372;28;20116;-73
2024/03/19 08:36:05;;;;;;;15.40;7.78;;;13.40;95.80;;;;;;5059027;28;20028;-74
2024/03/19 08:38:34;;;;;;;15.43;6.60;;;13.40;95.80;;;;;;5063461;28;20032;-73
2024/03/19 08:41:06;;;;;;;19.25;6.90;;;13.40;95.80;;;;;;5059016;28;20028;-73
2024/03/19 08:43:32;;;;;;;15.98;7.40;;;13.40;95.70;;;;;;5051131;28;20072;-73
2024/03/19 08:45:57;;;;;;;18.15;6.90;;;13.50;95.80;;;;;;5059667;28;20508;-73
2024/03/19 08:48:23;;;;;;;22.08;7.18;;;13.60;95.80;;;;;;5059504;28;20044;-73
2024/03/19 08:50:49;;;;;;;13.07;6.13;;;13.50;95.70;;;;;;5050367;28;20021;-73
2024/03/19 08:53:15;;;;;;;15.15;6.88;;;13.60;95.80;;;;;;5064853;28;20530;-74
2024/03/19 08:55:42;;;;;;;13.98;5.68;;;13.60;95.80;;;;;;5067227;28;20044;-73
2024/03/19 08:58:09;;;;;;;22.00;7.40;;;13.60;95.90;;;;;;5065933;28;20354;-73
2024/03/19 09:00:35;;;;;;;16.52;6.18;;;13.60;96.00;;;;;;5060519;28;20036;-74
2024/03/19 09:03:03;;;;;;;20.42;7.68;;;13.60;96.10;;;;;;5061927;28;20064;-74
2024/03/19 09:05:29;;;;;;;14.48;5.10;;;13.60;96.10;;;;;;5061070;28;20052;-73
2024/03/19 09:07:54;;;;;;;18.20;7.32;;;13.60;96.20;;;;;;5063752;28;20483;-73
2024/03/19 09:10:20;;;;;;;13.25;4.85;;;13.60;96.20;;;;;;5062066;28;20472;-73
2024/03/19 09:12:46;;;;;;;11.80;3.25;;;13.70;96.30;;;;;;5056097;28;20027;-74
2024/03/19 09:15:12;;;;;;;12.68;5.72;;;13.60;96.30;;;;;;5060467;28;20036;-74
2024/03/19 09:17:39;;;;;;;14.48;5.05;;;13.60;96.40;;;;;;5053774;28;20021;-73
2024/03/19 09:20:05;;;;;;;11.88;5.90;;;13.70;96.40;;;;;;5063404;28;20042;-77
2024/03/19 09:22:32;;;;;;;16.67;5.75;;;13.70;96.40;;;;;;5057241;28;20120;-74
2024/03/19 09:24:59;;;;;;;13.07;4.70;;;13.70;96.50;;;;;;5060513;28;20081;-74
2024/03/19 09:27:25;;;;;;;10.25;5.68;;;13.70;96.60;;;;;;5052210;28;20033;-73
2024/03/19 09:29:51;;;;;;;6.55;2.90;;;13.80;96.70;;;;;;5060825;28;20032;-74
2024/03/19 09:32:16;;;;;;;13.52;5.65;;;13.80;96.70;;;;;;5048232;28;20400;-74
2024/03/19 09:34:43;;;;;;;10.13;5.65;;;13.80;96.70;;;;;;5059683;28;20391;-74
2024/03/19 09:37:09;;;;;;;6.20;2.95;;;13.80;96.70;;;;;;5055653;28;20071;-73
2024/03/19 09:39:35;;;;;;;10.23;4.03;;;13.80;96.80;;;;;;5067879;28;20036;-73
2024/03/19 09:42:03;;;;;;;6.82;2.67;;;13.90;96.90;;;;;;5054038;28;20044;-76
2024/03/19 09:44:30;;;;;;;4.15;2.22;;;13.90;97.00;;;;;;5060901;28;20426;-72
2024/03/19 09:46:57;;;;;;;7.32;2.72;;;13.90;97.10;;;;;;5050163;28;20032;-74
2024/03/19 09:49:28;;;;;;;9.95;4.20;;;13.90;97.20;;;;;;5061546;28;20028;-74
2024/03/19 09:51:56;;;;;;;10.00;3.28;;;13.90;97.20;;;;;;5059285;28;20108;-75
2024/03/19 09:54:22;;;;;;;9.00;3.33;;;13.90;97.20;;;;;;5058009;28;20047;-75
2024/03/19 09:56:49;;;;;;;4.82;2.80;;;14.00;97.30;;;;;;5066175;28;20066;-74
2024/03/19 09:59:15;;;;;;;2.47;1.75;;;14.00;97.20;;;;;;5054080;28;20024;-74
2024/03/19 10:01:43;;;;;;;6.88;3.42;;;14.00;97.40;;;;;;5048397;28;20111;-74
2024/03/19 10:04:14;;;;;;;3.38;1.55;;;14.00;97.50;;;;;;5059560;28;20167;-74
2024/03/19 10:06:40;;;;;;;6.70;3.25;;;14.00;97.60;;;;;;5065586;28;20036;-74
2024/03/19 10:09:06;;;;;;;9.82;3.25;;;14.00;97.60;;;;;;5061344;28;20035;-74
2024/03/19 10:11:33;;;;;;;8.95;3.65;;;14.10;97.60;;;;;;5062221;28;20032;-74
2024/03/19 10:13:59;;;;;;;4.47;2.55;;;14.10;97.60;;;;;;5063429;28;20028;-74
2024/03/19 10:16:24;;;;;;;4.43;2.15;;;14.20;97.70;;;;;;5069504;28;20051;-74
2024/03/19 10:18:50;;;;;;;12.70;3.42;;;14.20;97.80;;;;;;5061877;28;20051;-73
2024/03/19 10:21:16;;;;;;;4.65;1.85;;;14.20;97.80;;;;;;5059174;28;20055;-74
2024/03/19 10:23:43;;;;;;;8.05;2.65;;;14.30;97.80;;;;;;5057749;28;20041;-74
2024/03/19 10:26:08;;;;;;;4.90;2.20;;;14.30;97.90;;;;;;5060962;28;20033;-74
2024/03/19 10:28:36;;;;;;;1.58;1.10;;;14.30;98.00;;;;;;5048332;28;20035;-74
2024/03/19 10:31:04;;;;;;;2.00;1.48;;;14.30;98.00;;;;;;5052649;28;20460;-73
2024/03/19 10:33:31;;;;;;;1.92;1.45;;;14.30;98.10;;;;;;5058226;28;20028;-73
2024/03/19 10:35:58;;;;;;;9.57;3.25;;;14.30;98.30;;;;;;5047645;28;20033;-73
2024/03/19 10:38:26;;;;;;;3.17;1.38;;;14.30;98.30;;;;;;5050623;28;20104;-73
2024/03/19 10:40:53;;;;;;;2.67;1.58;;;14.40;98.50;;;;;;5050056;28;20098;-73
2024/03/19 10:43:19;;;;;;;1.38;0.95;;;14.40;98.50;;;;;;5051204;28;20056;-73
2024/03/19 10:45:47;;;;;;;1.63;1.02;;;14.40;98.40;;;;;;5060126;28;20742;-73
2024/03/19 10:48:12;;;;;;;3.28;1.85;;;14.40;98.50;;;;;;5050275;28;20372;-73
2024/03/19 10:50:40;;;;;;;1.88;1.35;;;14.40;98.60;;;;;;5057482;28;20040;-73
2024/03/19 10:53:13;;;;;;;5.47;1.90;;;14.50;98.50;;;;;;5057018;28;20032;-73
2024/03/19 10:55:40;;;;;;;3.03;1.75;;;14.50;98.60;;;;;;5059114;28;20456;-73
2024/03/19 10:58:11;;;;;;;3.05;1.65;;;14.50;98.60;;;;;;5061985;28;20032;-73
2024/03/19 11:00:41;;;;;;;2.47;1.67;;;14.60;98.50;;;;;;5065356;28;20041;-73
2024/03/19 11:03:11;;;;;;;3.90;1.83;;;14.60;98.60;;;;;;5059456;28;20040;-73
2024/03/19 11:05:38;;;;;;;4.03;1.50;;;14.70;98.50;;;;;;5051963;28;20033;-73
2024/03/19 11:08:04;;;;;;;5.30;2.13;;;14.80;98.50;;;;;;5054381;28;20036;-73
2024/03/19 11:10:35;;;;;;;6.30;3.38;;;14.80;98.60;;;;;;5065130;28;20029;-74
2024/03/19 11:13:08;;;;;;;2.95;1.58;;;14.90;98.60;;;;;;5050927;28;20032;-73
2024/03/19 11:15:35;;;;;;;8.95;3.03;;;14.90;98.50;;;;;;5052088;28;20079;-73
2024/03/19 11:18:19;;;;;;;6.75;2.83;;;15.00;98.40;;;;;;5059641;28;20090;-72
2024/03/19 11:20:52;;;;;;;15.65;2.45;;;15.10;98.40;;;;;;5065627;28;20037;-72
2024/03/19 11:23:23;;;;;;;10.40;2.47;;;15.10;98.40;;;;;;5056685;28;20120;-73
2024/03/19 11:25:50;;;;;;;6.30;2.40;;;15.20;98.40;;;;;;5063038;28;20369;-73
2024/03/19 11:28:21;;;;;;;8.25;3.17;;;15.20;98.30;;;;;;5071296;28;21406;-74
2024/03/19 11:30:51;;;;;;;1.95;1.30;;;15.20;98.30;;;;;;5056515;28;21108;-73
2024/03/19 11:33:19;;;;;;;1.75;0.95;;;15.30;98.20;;;;;;5060916;28;20044;-73
2024/03/19 11:35:48;;;;;;;4.88;1.23;;;15.20;98.10;;;;;;5061672;28;20102;-73
2024/03/19 11:38:15;;;;;;;1.10;0.93;;;15.10;98.10;;;;;;5049683;28;20033;-74
2024/03/19 11:40:44;;;;;;;1.80;1.00;;;15.10;98.30;;;;;;5067339;28;20035;-73
2024/03/19 11:43:16;;;;;;;1.30;1.20;;;15.20;98.40;;;;;;5058204;28;20053;-74
2024/03/19 11:45:47;;;;;;;1.42;1.02;;;15.20;98.30;;;;;;5051629;28;20037;-74
2024/03/19 11:48:20;;;;;;;2.50;1.23;;;15.20;98.40;;;;;;5070357;28;20047;-74
2024/03/19 11:50:53;;;;;;;3.38;1.38;;;15.20;98.40;;;;;;5055532;28;20028;-73
2024/03/19 11:53:19;;;;;;;4.45;1.60;;;15.30;98.50;;;;;;5065131;28;20040;-74
2024/03/19 11:55:47;;;;;;;3.33;1.77;;;15.30;98.50;;;;;;5051601;28;20049;-74
2024/03/19 11:58:13;;;;;;;7.50;3.63;;;15.40;98.50;;;;;;5051564;28;20037;-74
2024/03/19 12:00:39;;;;;;;1.48;1.02;;;15.50;98.50;;;;;;5059747;28;20457;-73
2024/03/19 12:03:05;;;;;;;3.85;1.98;;;15.50;98.40;;;;;;5057311;28;20063;-74
2024/03/19 12:05:31;;;;;;;3.45;2.00;;;15.50;98.30;;;;;;5055497;28;20453;-76
2024/03/19 12:08:00;;;;;;;2.13;1.35;;;15.60;98.30;;;;;;5062442;28;20147;-73
2024/03/19 12:10:26;;;;;;;3.88;2.00;;;15.60;98.30;;;;;;5062627;28;20025;-74
2024/03/19 12:12:53;;;;;;;7.30;1.92;;;15.60;98.30;;;;;;5060543;28;20089;-72
2024/03/19 12:15:21;;;;;;;4.80;2.63;;;15.70;98.30;;;;;;5062920;28;20100;-73
2024/03/19 12:17:48;;;;;;;5.20;2.20;;;15.80;98.20;;;;;;5056793;28;20068;-73
2024/03/19 12:20:15;;;;;;;7.68;2.58;;;15.80;98.20;;;;;;5050740;28;20029;-73
2024/03/19 12:22:45;;;;;;;8.63;2.85;;;15.90;98.20;;;;;;5054065;28;20049;-73
2024/03/19 12:25:11;;;;;;;7.65;2.63;;;15.90;98.20;;;;;;5055252;28;20435;-74
2024/03/19 12:27:40;;;;;;;5.68;1.75;;;15.90;98.10;;;;;;5051050;28;20388;-72
2024/03/19 12:30:11;;;;;;;2.30;1.65;;;16.00;98.10;;;;;;5061486;28;20463;-73
2024/03/19 12:32:36;;;;;;;2.95;1.30;;;16.00;98.00;;;;;;5055956;28;20458;-73